Time;durP1;ratioP1;P1;durP2;ratioP2;P2;SDS_P1;SDS_P2;PMS_P1;PMS_P2;Temp;Humidity;BMP_temperature;BMP_pressure;BME280_temperature;BME280_humidity;BME280_pressure;Samples;Min_cycle;Max_cycle;Signal;HPM_P1;HPM_P2
2023/09/23 00:00:13;;;;;;;2.35;1.30;;;13.70;99.90;;;;;;5023337;28;20479;-74
2023/09/23 00:02:39;;;;;;;1.52;0.90;;;13.70;99.90;;;;;;5026704;28;20041;-74
2023/09/23 00:05:09;;;;;;;2.20;1.02;;;13.70;99.90;;;;;;5027154;28;20106;-74
2023/09/23 00:07:35;;;;;;;1.67;0.90;;;13.60;99.90;;;;;;5026822;28;20487;-74
2023/09/23 00:10:08;;;;;;;1.58;0.57;;;13.60;99.90;;;;;;5022510;28;20040;-74
2023/09/23 00:12:35;;;;;;;1.90;0.60;;;13.60;99.90;;;;;;5009284;28;20056;-74
2023/09/23 00:15:01;;;;;;;1.92;0.70;;;13.60;99.90;;;;;;5024924;28;20053;-74
2023/09/23 00:17:27;;;;;;;1.42;0.60;;;13.60;99.90;;;;;;5028666;28;20046;-73
2023/09/23 00:19:52;;;;;;;1.35;0.85;;;13.60;99.90;;;;;;5023339;28;20275;-74
2023/09/23 00:22:18;;;;;;;2.30;0.80;;;13.60;99.90;;;;;;5026142;28;20491;-74
2023/09/23 00:24:44;;;;;;;2.78;0.63;;;13.60;99.90;;;;;;5025078;28;20046;-73
2023/09/23 00:27:10;;;;;;;1.23;0.65;;;13.60;99.90;;;;;;5025123;28;20038;-73
2023/09/23 00:29:36;;;;;;;1.23;0.50;;;13.50;99.90;;;;;;5026190;28;20099;-73
2023/09/23 00:32:02;;;;;;;1.33;0.50;;;13.50;99.90;;;;;;5025202;28;20688;-74
2023/09/23 00:34:29;;;;;;;1.27;0.85;;;13.50;99.90;;;;;;5025179;28;20057;-73
2023/09/23 00:36:54;;;;;;;1.08;0.40;;;13.50;99.90;;;;;;5041071;28;20041;-73
2023/09/23 00:39:20;;;;;;;1.10;0.50;;;13.50;99.90;;;;;;5024745;28;20041;-74
2023/09/23 00:41:46;;;;;;;1.10;0.50;;;13.40;99.90;;;;;;5010551;28;20124;-73
2023/09/23 00:44:11;;;;;;;1.10;0.40;;;13.50;99.90;;;;;;5025906;28;20096;-74
2023/09/23 00:46:38;;;;;;;1.05;0.50;;;13.40;99.90;;;;;;5042362;28;20033;-73
2023/09/23 00:49:07;;;;;;;1.60;0.60;;;13.40;99.90;;;;;;5026873;28;20429;-73
2023/09/23 00:51:33;;;;;;;1.45;0.60;;;13.40;99.90;;;;;;5025747;28;20043;-73
2023/09/23 00:54:01;;;;;;;0.70;0.35;;;13.40;99.90;;;;;;5007921;28;20036;-74
2023/09/23 00:56:28;;;;;;;0.90;0.50;;;13.40;99.90;;;;;;5024899;28;20065;-74
2023/09/23 00:58:54;;;;;;;1.17;0.60;;;13.30;99.90;;;;;;5008240;28;20033;-74
2023/09/23 01:01:21;;;;;;;1.20;0.40;;;13.30;99.90;;;;;;5006548;28;20453;-74
2023/09/23 01:03:47;;;;;;;1.45;0.55;;;13.30;99.90;;;;;;5024685;28;20037;-74
2023/09/23 01:06:16;;;;;;;1.25;0.50;;;13.30;99.90;;;;;;5027428;28;20039;-74
2023/09/23 01:08:44;;;;;;;2.00;0.60;;;13.30;99.90;;;;;;5023753;28;20305;-74
2023/09/23 01:11:11;;;;;;;1.42;0.75;;;13.30;99.90;;;;;;5025716;28;20045;-74
2023/09/23 01:13:37;;;;;;;1.98;0.60;;;13.30;99.90;;;;;;5009276;28;20034;-74
2023/09/23 01:16:08;;;;;;;3.13;0.77;;;13.30;99.90;;;;;;5009847;28;20304;-74
2023/09/23 01:18:35;;;;;;;1.13;0.68;;;13.30;99.90;;;;;;5024369;28;20064;-74
2023/09/23 01:21:02;;;;;;;1.65;0.60;;;13.20;99.90;;;;;;5007061;28;20112;-74
2023/09/23 01:23:28;;;;;;;1.60;0.77;;;13.30;99.90;;;;;;5008690;28;20112;-73
2023/09/23 01:25:53;;;;;;;2.30;0.63;;;13.30;99.90;;;;;;5006749;28;20164;-73
2023/09/23 01:28:19;;;;;;;3.30;1.05;;;13.30;99.90;;;;;;5022803;28;20068;-74
2023/09/23 01:30:45;;;;;;;2.17;1.15;;;13.30;99.90;;;;;;5004974;28;20037;-74
2023/09/23 01:33:13;;;;;;;3.10;0.88;;;13.30;99.90;;;;;;5007469;28;20034;-74
2023/09/23 01:35:40;;;;;;;1.95;0.95;;;13.20;99.90;;;;;;5008164;28;20112;-74
2023/09/23 01:38:05;;;;;;;1.95;0.82;;;13.20;99.90;;;;;;5007946;28;20041;-74
2023/09/23 01:40:32;;;;;;;4.05;1.00;;;13.20;99.90;;;;;;5024312;28;20384;-74
2023/09/23 01:42:58;;;;;;;1.85;1.00;;;13.20;99.90;;;;;;5026098;28;20025;-73
2023/09/23 01:45:25;;;;;;;2.00;0.70;;;13.20;99.90;;;;;;5042122;28;20483;-73
2023/09/23 01:47:52;;;;;;;3.00;1.05;;;13.10;99.90;;;;;;5005744;28;20387;-74
2023/09/23 01:50:18;;;;;;;2.10;0.95;;;13.20;99.90;;;;;;5025774;28;20048;-74
2023/09/23 01:52:45;;;;;;;2.28;1.10;;;13.20;99.90;;;;;;5006297;28;20048;-74
2023/09/23 01:55:12;;;;;;;3.13;1.15;;;13.20;99.90;;;;;;5040002;28;20049;-74
2023/09/23 01:57:41;;;;;;;2.47;0.80;;;13.20;99.90;;;;;;5022887;28;20403;-74
2023/09/23 02:00:13;;;;;;;1.85;0.73;;;13.20;99.90;;;;;;5022517;28;20084;-73
2023/09/23 02:02:38;;;;;;;3.30;0.85;;;13.20;99.90;;;;;;5021689;28;20038;-74
2023/09/23 02:05:05;;;;;;;2.47;0.98;;;13.20;99.90;;;;;;5006264;28;20032;-74
2023/09/23 02:07:30;;;;;;;1.92;0.70;;;13.10;99.90;;;;;;5008379;28;20033;-74
2023/09/23 02:09:56;;;;;;;2.10;0.90;;;13.10;99.90;;;;;;5020519;28;20495;-74
2023/09/23 02:12:23;;;;;;;2.00;0.95;;;13.10;99.90;;;;;;5006683;28;20114;-74
2023/09/23 02:14:49;;;;;;;4.18;1.20;;;13.10;99.90;;;;;;5024781;28;20107;-74
2023/09/23 02:17:15;;;;;;;3.38;1.20;;;13.10;99.90;;;;;;5023967;28;20039;-74
2023/09/23 02:19:40;;;;;;;2.10;0.82;;;13.10;99.90;;;;;;5020752;28;20739;-74
2023/09/23 02:22:06;;;;;;;2.50;1.30;;;13.10;99.90;;;;;;5004889;28;20037;-73
2023/09/23 02:24:33;;;;;;;2.88;1.10;;;13.10;99.90;;;;;;5023697;28;20061;-74
2023/09/23 02:26:59;;;;;;;3.30;1.25;;;13.10;99.90;;;;;;5023253;28;20451;-74
2023/09/23 02:29:24;;;;;;;3.00;1.40;;;13.20;99.90;;;;;;5004907;28;20056;-74
2023/09/23 02:31:50;;;;;;;2.25;1.05;;;13.20;99.90;;;;;;5021940;28;20127;-74
2023/09/23 02:34:18;;;;;;;3.42;1.27;;;13.20;99.90;;;;;;5024039;28;20045;-74
2023/09/23 02:36:45;;;;;;;2.50;1.23;;;13.20;99.90;;;;;;5022614;28;20045;-74
2023/09/23 02:39:19;;;;;;;2.17;1.10;;;13.20;99.90;;;;;;5038918;28;20146;-74
2023/09/23 02:41:45;;;;;;;2.33;1.00;;;13.20;99.90;;;;;;5038505;28;20056;-74
2023/09/23 02:44:14;;;;;;;2.33;1.10;;;13.20;99.90;;;;;;5019797;28;20041;-74
2023/09/23 02:46:41;;;;;;;2.88;1.35;;;13.20;99.90;;;;;;5022164;28;20048;-74
2023/09/23 02:49:09;;;;;;;3.15;1.42;;;13.20;99.90;;;;;;5023300;28;20033;-74
2023/09/23 02:51:38;;;;;;;3.72;1.20;;;13.10;99.90;;;;;;5007250;28;20124;-74
2023/09/23 02:54:05;;;;;;;2.90;1.10;;;13.20;99.90;;;;;;5022040;28;20041;-74
2023/09/23 02:56:33;;;;;;;2.85;1.15;;;13.20;99.90;;;;;;5021948;28;20030;-74
2023/09/23 02:58:59;;;;;;;3.05;1.13;;;13.10;99.90;;;;;;5022538;28;20175;-74
2023/09/23 03:01:25;;;;;;;3.70;1.42;;;13.10;99.90;;;;;;5022888;28;20120;-74
2023/09/23 03:03:51;;;;;;;2.28;1.20;;;13.10;99.90;;;;;;5018511;28;20642;-74
2023/09/23 03:06:18;;;;;;;4.20;1.50;;;13.00;99.90;;;;;;5034938;28;20068;-74
2023/09/23 03:08:47;;;;;;;4.95;1.58;;;13.00;99.90;;;;;;5006585;28;20047;-74
2023/09/23 03:11:18;;;;;;;3.28;1.40;;;13.00;99.90;;;;;;5022007;28;20044;-74
2023/09/23 03:13:44;;;;;;;3.92;1.70;;;13.00;99.90;;;;;;5022507;28;20120;-75
2023/09/23 03:16:13;;;;;;;5.32;1.80;;;13.00;99.90;;;;;;5023959;28;20087;-74
2023/09/23 03:18:54;;;;;;;2.72;1.48;;;13.00;99.90;;;;;;5039356;28;20041;-74
2023/09/23 03:21:20;;;;;;;4.10;1.90;;;12.90;99.90;;;;;;5019680;28;20539;-74
2023/09/23 03:23:46;;;;;;;3.55;1.80;;;12.90;99.90;;;;;;5009999;28;20045;-74
2023/09/23 03:26:15;;;;;;;2.80;1.42;;;12.80;99.90;;;;;;5008879;28;20411;-74
2023/09/23 03:28:41;;;;;;;5.95;2.15;;;12.80;99.90;;;;;;5027090;28;20392;-74
2023/09/23 03:31:09;;;;;;;3.63;2.10;;;12.80;99.90;;;;;;5006696;28;20045;-74
2023/09/23 03:33:35;;;;;;;5.80;2.10;;;12.80;99.90;;;;;;5007433;28;20154;-74
2023/09/23 03:36:01;;;;;;;5.40;2.22;;;12.80;99.90;;;;;;5017786;28;20049;-74
2023/09/23 03:38:32;;;;;;;4.15;1.92;;;12.70;99.90;;;;;;5008509;28;20050;-74
2023/09/23 03:40:59;;;;;;;4.05;2.00;;;12.80;99.90;;;;;;5023568;28;20045;-74
2023/09/23 03:43:25;;;;;;;6.38;2.10;;;12.70;99.90;;;;;;5038909;28;20052;-74
2023/09/23 03:45:52;;;;;;;5.13;2.35;;;12.80;99.90;;;;;;5023989;28;20048;-74
2023/09/23 03:48:19;;;;;;;3.63;1.80;;;12.80;99.90;;;;;;5025966;28;20059;-74
2023/09/23 03:50:48;;;;;;;4.13;2.28;;;12.80;99.90;;;;;;5024023;28;20049;-74
2023/09/23 03:53:13;;;;;;;5.03;2.53;;;12.70;99.90;;;;;;5027066;28;20049;-74
2023/09/23 03:55:39;;;;;;;4.07;2.13;;;12.70;99.90;;;;;;5030181;28;20904;-73
2023/09/23 03:58:05;;;;;;;3.78;1.60;;;12.70;99.90;;;;;;5013619;28;20088;-74
2023/09/23 04:00:36;;;;;;;5.85;2.00;;;12.70;99.90;;;;;;5027280;28;20091;-74
2023/09/23 04:03:02;;;;;;;3.55;1.90;;;12.80;99.90;;;;;;5028235;28;20037;-74
2023/09/23 04:05:30;;;;;;;4.55;2.45;;;12.70;99.90;;;;;;5011750;28;20411;-73
2023/09/23 04:07:56;;;;;;;6.20;2.40;;;12.70;99.90;;;;;;5046241;28;20042;-74
2023/09/23 04:10:24;;;;;;;5.47;2.55;;;12.70;99.90;;;;;;5025735;28;20052;-74
2023/09/23 04:12:51;;;;;;;5.00;2.13;;;12.70;99.90;;;;;;5010605;28;20530;-74
2023/09/23 04:15:19;;;;;;;4.68;2.40;;;12.70;99.90;;;;;;5012996;28;20092;-74
2023/09/23 04:17:45;;;;;;;6.82;2.70;;;12.60;99.90;;;;;;5027826;28;20041;-74
2023/09/23 04:20:11;;;;;;;8.90;2.60;;;12.60;99.90;;;;;;5025338;28;20506;-74
2023/09/23 04:22:37;;;;;;;4.22;2.35;;;12.50;99.90;;;;;;5025137;28;20052;-74
2023/09/23 04:25:05;;;;;;;5.53;2.35;;;12.50;99.90;;;;;;5025519;28;20088;-74
2023/09/23 04:27:32;;;;;;;6.80;3.05;;;12.50;99.90;;;;;;5028894;28;20072;-74
2023/09/23 04:29:59;;;;;;;5.68;2.50;;;12.40;99.90;;;;;;5028285;28;20053;-74
2023/09/23 04:32:25;;;;;;;5.57;2.45;;;12.50;99.90;;;;;;5011836;28;20116;-74
2023/09/23 04:34:50;;;;;;;5.35;2.50;;;12.40;99.90;;;;;;5028788;28;20125;-74
2023/09/23 04:37:16;;;;;;;5.15;2.38;;;12.40;99.90;;;;;;5029152;28;20041;-74
2023/09/23 04:39:41;;;;;;;5.32;2.38;;;12.40;99.90;;;;;;5006304;28;20045;-74
2023/09/23 04:42:07;;;;;;;4.50;2.35;;;12.40;99.90;;;;;;5025568;28;20037;-74
2023/09/23 04:44:34;;;;;;;4.85;2.53;;;12.40;99.90;;;;;;5025787;28;20041;-74
2023/09/23 04:47:00;;;;;;;4.28;2.25;;;12.40;99.90;;;;;;5011001;28;20560;-74
2023/09/23 04:49:27;;;;;;;4.50;2.50;;;12.30;99.90;;;;;;5027523;28;20029;-74
2023/09/23 04:51:52;;;;;;;6.72;3.00;;;12.30;99.90;;;;;;5027078;28;20509;-75
2023/09/23 04:54:18;;;;;;;5.18;2.70;;;12.30;99.90;;;;;;5029080;28;20133;-74
2023/09/23 04:56:43;;;;;;;6.82;3.40;;;12.30;99.90;;;;;;5008068;28;20067;-74
2023/09/23 04:59:10;;;;;;;4.80;2.60;;;12.30;99.90;;;;;;5008223;28;20120;-74
2023/09/23 05:01:35;;;;;;;5.00;2.20;;;12.30;99.90;;;;;;5026225;28;20095;-74
2023/09/23 05:04:02;;;;;;;6.43;2.72;;;12.30;99.90;;;;;;5003058;28;20044;-74
2023/09/23 05:06:28;;;;;;;6.80;2.90;;;12.30;99.90;;;;;;5023899;28;20061;-74
2023/09/23 05:08:55;;;;;;;6.60;3.47;;;12.30;99.90;;;;;;5024469;28;20034;-74
2023/09/23 05:11:21;;;;;;;5.68;2.85;;;12.30;99.90;;;;;;5024047;28;20077;-74
2023/09/23 05:13:46;;;;;;;6.25;3.10;;;12.30;99.90;;;;;;5006339;28;20073;-74
2023/09/23 05:16:12;;;;;;;6.47;3.20;;;12.30;99.90;;;;;;5023938;28;20539;-74
2023/09/23 05:18:38;;;;;;;7.50;3.42;;;12.30;99.90;;;;;;5026380;28;20045;-74
2023/09/23 05:21:04;;;;;;;6.85;2.90;;;12.20;99.90;;;;;;5039122;28;20467;-74
2023/09/23 05:23:30;;;;;;;7.25;3.03;;;12.20;99.90;;;;;;5024568;28;20124;-74
2023/09/23 05:25:57;;;;;;;8.25;3.15;;;12.20;99.90;;;;;;5022532;28;20171;-74
2023/09/23 05:28:24;;;;;;;6.03;3.20;;;12.20;99.90;;;;;;5023738;28;20041;-74
2023/09/23 05:30:49;;;;;;;5.88;3.00;;;12.20;99.90;;;;;;5022001;28;20127;-74
2023/09/23 05:33:15;;;;;;;7.95;3.40;;;12.20;99.90;;;;;;5024059;28;20076;-74
2023/09/23 05:35:41;;;;;;;7.30;3.83;;;12.20;99.90;;;;;;5024641;28;20395;-74
2023/09/23 05:38:09;;;;;;;9.40;4.43;;;12.20;99.90;;;;;;5024055;28;20036;-74
2023/09/23 05:40:36;;;;;;;6.55;3.42;;;12.20;99.90;;;;;;5021601;28;20106;-74
2023/09/23 05:43:03;;;;;;;8.07;3.95;;;12.20;99.90;;;;;;5023790;28;20033;-74
2023/09/23 05:45:29;;;;;;;9.43;4.28;;;12.20;99.90;;;;;;5023606;28;20049;-74
2023/09/23 05:47:55;;;;;;;9.40;3.92;;;12.20;99.90;;;;;;5023902;28;20521;-74
2023/09/23 05:50:22;;;;;;;9.35;4.95;;;12.20;99.90;;;;;;5021325;28;20519;-74
2023/09/23 05:52:48;;;;;;;13.23;4.80;;;12.20;99.90;;;;;;5022585;28;20499;-74
2023/09/23 05:55:14;;;;;;;12.48;5.20;;;12.20;99.90;;;;;;5006670;28;20115;-74
2023/09/23 05:57:40;;;;;;;10.20;5.03;;;12.20;99.90;;;;;;5006673;28;20374;-74
2023/09/23 06:00:11;;;;;;;13.88;5.57;;;12.20;99.90;;;;;;5022623;28;20041;-74
2023/09/23 06:02:38;;;;;;;12.80;6.13;;;12.20;99.90;;;;;;5016777;28;20092;-74
2023/09/23 06:05:04;;;;;;;14.25;6.05;;;12.20;99.90;;;;;;5022246;28;20030;-74
2023/09/23 06:07:33;;;;;;;12.55;5.53;;;12.30;99.90;;;;;;5022855;28;20392;-74
2023/09/23 06:09:59;;;;;;;17.33;6.72;;;12.30;99.90;;;;;;5021326;28;20414;-74
2023/09/23 06:12:29;;;;;;;14.98;6.85;;;12.30;99.90;;;;;;5022696;28;20431;-74
2023/09/23 06:14:59;;;;;;;13.68;6.43;;;12.30;99.90;;;;;;5006036;28;20080;-74
2023/09/23 06:17:27;;;;;;;13.00;6.35;;;12.30;99.90;;;;;;5022955;28;20509;-75
2023/09/23 06:19:53;;;;;;;15.88;6.50;;;12.30;99.90;;;;;;5024199;28;20084;-74
2023/09/23 06:22:19;;;;;;;14.55;5.90;;;12.30;99.90;;;;;;5019431;28;20594;-74
2023/09/23 06:24:45;;;;;;;13.52;6.80;;;12.30;99.90;;;;;;5020998;28;20033;-77
2023/09/23 06:27:10;;;;;;;15.00;6.47;;;12.40;99.90;;;;;;5022115;28;20045;-74
2023/09/23 06:29:36;;;;;;;16.58;7.53;;;12.40;99.90;;;;;;5021260;28;20051;-74
2023/09/23 06:32:03;;;;;;;15.73;6.88;;;12.40;99.90;;;;;;5017091;28;20372;-74
2023/09/23 06:34:29;;;;;;;17.77;7.20;;;12.40;99.90;;;;;;5015584;28;20049;-74
2023/09/23 06:36:55;;;;;;;15.98;6.82;;;12.50;99.90;;;;;;5018683;28;20037;-74
2023/09/23 06:39:23;;;;;;;14.30;6.35;;;12.50;99.90;;;;;;5018150;28;20057;-75
2023/09/23 06:41:49;;;;;;;14.40;7.30;;;12.50;99.90;;;;;;5020242;28;20037;-75
2023/09/23 06:44:15;;;;;;;16.05;6.80;;;12.50;99.90;;;;;;5019522;28;20447;-74
2023/09/23 06:46:41;;;;;;;13.90;7.00;;;12.50;99.90;;;;;;5019955;28;20048;-74
2023/09/23 06:49:06;;;;;;;17.65;7.40;;;12.50;99.90;;;;;;5020358;28;20042;-74
2023/09/23 06:51:32;;;;;;;16.63;7.10;;;12.50;99.90;;;;;;5001306;28;20041;-75
2023/09/23 06:53:57;;;;;;;17.90;7.43;;;12.60;99.90;;;;;;5017654;28;20252;-74
2023/09/23 06:56:24;;;;;;;18.77;7.30;;;12.60;99.90;;;;;;5034725;28;20041;-74
2023/09/23 06:58:49;;;;;;;20.55;8.18;;;12.70;99.90;;;;;;5018444;28;20065;-74
2023/09/23 07:01:15;;;;;;;14.93;6.50;;;12.80;99.90;;;;;;5018167;28;20491;-74
2023/09/23 07:03:40;;;;;;;16.48;7.45;;;12.80;99.90;;;;;;5020575;28;20913;-75
2023/09/23 07:06:06;;;;;;;14.75;6.60;;;12.90;99.90;;;;;;5020881;28;20030;-72
2023/09/23 07:08:32;;;;;;;15.95;7.40;;;13.00;99.90;;;;;;5033771;28;20472;-73
2023/09/23 07:10:57;;;;;;;18.60;7.75;;;13.00;99.90;;;;;;5021580;28;20072;-74
2023/09/23 07:13:23;;;;;;;16.27;7.15;;;13.00;99.90;;;;;;5019821;28;20042;-74
2023/09/23 07:15:48;;;;;;;14.82;7.20;;;13.00;99.90;;;;;;5019047;28;20049;-74
2023/09/23 07:18:14;;;;;;;16.00;6.85;;;13.00;99.90;;;;;;5020658;28;20527;-74
2023/09/23 07:20:40;;;;;;;15.18;6.72;;;13.00;99.90;;;;;;5017349;28;20046;-74
2023/09/23 07:23:05;;;;;;;15.55;6.40;;;13.00;99.90;;;;;;5019842;28;20037;-74
2023/09/23 07:25:42;;;;;;;13.32;6.47;;;13.00;99.90;;;;;;5018188;28;20045;-74
2023/09/23 07:28:08;;;;;;;12.07;5.93;;;13.00;99.90;;;;;;5019202;28;20037;-74
2023/09/23 07:30:34;;;;;;;15.07;6.72;;;13.00;99.90;;;;;;5024418;28;20092;-75
2023/09/23 07:33:00;;;;;;;14.40;6.35;;;13.00;99.90;;;;;;5021715;28;20060;-75
2023/09/23 07:35:32;;;;;;;16.95;7.75;;;13.00;99.90;;;;;;5004701;28;20041;-75
2023/09/23 07:38:01;;;;;;;16.23;6.80;;;13.10;99.90;;;;;;5023733;28;20033;-74
2023/09/23 07:40:29;;;;;;;14.40;7.13;;;13.10;99.90;;;;;;5036247;28;20253;-74
2023/09/23 07:42:54;;;;;;;17.38;6.93;;;13.20;99.90;;;;;;5024745;28;20509;-75
2023/09/23 07:45:20;;;;;;;15.65;7.43;;;13.20;99.90;;;;;;5024223;28;20477;-74
2023/09/23 07:47:46;;;;;;;15.93;7.13;;;13.30;99.90;;;;;;5022605;28;20091;-75
2023/09/23 07:50:12;;;;;;;16.30;6.78;;;13.30;99.90;;;;;;5018187;28;20033;-74
2023/09/23 07:52:38;;;;;;;15.15;6.53;;;13.40;99.90;;;;;;5021291;28;20114;-74
2023/09/23 07:55:04;;;;;;;17.63;6.95;;;13.40;99.90;;;;;;5020262;28;20763;-75
2023/09/23 07:57:31;;;;;;;14.82;7.07;;;13.40;99.90;;;;;;5019225;28;20180;-75
2023/09/23 07:59:57;;;;;;;15.20;6.47;;;13.40;99.90;;;;;;5019795;28;20146;-75
2023/09/23 08:02:22;;;;;;;18.02;7.35;;;13.50;99.90;;;;;;5021082;28;20640;-74
2023/09/23 08:04:48;;;;;;;13.57;6.75;;;13.50;99.90;;;;;;5001897;28;20429;-75
2023/09/23 08:07:14;;;;;;;12.93;6.57;;;13.60;99.90;;;;;;5023930;28;20422;-75
2023/09/23 08:09:40;;;;;;;15.00;6.93;;;13.60;99.90;;;;;;5017800;28;20041;-75
2023/09/23 08:12:05;;;;;;;15.88;6.40;;;13.70;99.90;;;;;;5005082;28;20107;-75
2023/09/23 08:14:31;;;;;;;11.50;5.88;;;13.80;99.90;;;;;;5023107;28;20045;-74
2023/09/23 08:16:56;;;;;;;13.85;6.18;;;13.80;99.90;;;;;;5019475;28;20453;-75
2023/09/23 08:19:23;;;;;;;11.80;5.80;;;13.90;99.90;;;;;;5002916;28;20037;-75
2023/09/23 08:21:49;;;;;;;12.15;5.15;;;13.90;99.90;;;;;;5020587;28;20048;-75
2023/09/23 08:24:14;;;;;;;13.65;5.63;;;13.90;99.90;;;;;;5021915;28;20046;-75
2023/09/23 08:26:40;;;;;;;12.45;6.15;;;14.00;99.90;;;;;;5018363;28;20418;-74
2023/09/23 08:29:06;;;;;;;11.57;6.03;;;14.00;99.90;;;;;;5025382;28;20060;-74
2023/09/23 08:31:31;;;;;;;12.85;5.78;;;14.10;99.90;;;;;;5002473;28;20052;-74
2023/09/23 08:33:58;;;;;;;10.65;5.32;;;14.10;99.90;;;;;;5019472;28;20053;-75
2023/09/23 08:36:24;;;;;;;11.82;5.47;;;14.10;99.90;;;;;;5019182;28;20175;-75
2023/09/23 08:38:49;;;;;;;14.32;5.97;;;14.10;99.90;;;;;;5020918;28;20127;-75
2023/09/23 08:41:20;;;;;;;10.68;5.63;;;14.10;99.90;;;;;;5024436;28;20045;-75
2023/09/23 08:43:50;;;;;;;12.77;7.07;;;14.20;99.90;;;;;;5019736;28;20041;-76
2023/09/23 08:46:21;;;;;;;12.18;5.57;;;14.30;99.90;;;;;;5019184;28;20045;-74
2023/09/23 08:48:47;;;;;;;11.82;5.13;;;14.40;99.90;;;;;;5017546;28;20037;-74
2023/09/23 08:51:16;;;;;;;13.13;5.50;;;14.40;99.90;;;;;;5034532;28;20446;-74
2023/09/23 08:53:43;;;;;;;11.85;5.80;;;14.50;99.90;;;;;;5034261;28;20128;-74
2023/09/23 08:56:10;;;;;;;9.68;5.15;;;14.50;99.90;;;;;;5020537;28;20159;-74
2023/09/23 08:58:35;;;;;;;10.32;5.90;;;14.50;99.90;;;;;;5021860;28;20038;-74
2023/09/23 09:01:01;;;;;;;10.10;4.78;;;14.50;99.90;;;;;;5016592;28;20049;-74
2023/09/23 09:03:27;;;;;;;10.77;5.07;;;14.60;99.90;;;;;;5018385;28;20112;-74
2023/09/23 09:05:53;;;;;;;11.93;6.00;;;14.70;99.90;;;;;;5016684;28;20037;-73
2023/09/23 09:08:18;;;;;;;10.43;4.78;;;14.80;99.90;;;;;;5019349;28;20041;-74
2023/09/23 09:10:46;;;;;;;9.38;5.00;;;14.80;99.90;;;;;;5015323;28;20056;-74
2023/09/23 09:13:11;;;;;;;9.93;4.88;;;14.80;99.90;;;;;;5017132;28;20037;-73
2023/09/23 09:15:37;;;;;;;11.23;5.38;;;14.80;99.90;;;;;;5013038;28;20037;-74
2023/09/23 09:18:04;;;;;;;9.57;4.80;;;14.80;99.90;;;;;;5019139;28;20130;-74
2023/09/23 09:20:30;;;;;;;9.93;5.20;;;14.90;99.90;;;;;;5012918;28;20037;-74
2023/09/23 09:22:55;;;;;;;11.77;4.97;;;15.00;99.90;;;;;;5016541;28;20122;-74
2023/09/23 09:25:21;;;;;;;10.05;4.80;;;14.90;99.90;;;;;;4998846;28;20075;-74
2023/09/23 09:27:48;;;;;;;9.50;4.88;;;14.90;99.90;;;;;;5017172;28;20049;-74
2023/09/23 09:30:13;;;;;;;8.32;4.68;;;14.90;99.90;;;;;;4998736;28;20052;-74
2023/09/23 09:32:44;;;;;;;13.48;5.13;;;14.90;99.90;;;;;;5034629;28;20053;-74
2023/09/23 09:35:15;;;;;;;8.80;4.90;;;14.90;99.90;;;;;;5033851;28;20045;-74
2023/09/23 09:37:45;;;;;;;9.55;4.78;;;14.90;99.90;;;;;;5040311;28;20041;-74
2023/09/23 09:40:18;;;;;;;7.45;5.13;;;14.90;99.90;;;;;;5022478;28;20183;-74
2023/09/23 09:42:53;;;;;;;11.20;5.18;;;14.90;99.90;;;;;;5023750;28;20521;-74
2023/09/23 09:45:19;;;;;;;10.13;4.75;;;14.90;99.90;;;;;;5005771;28;20033;-74
2023/09/23 09:47:47;;;;;;;9.90;4.80;;;14.90;99.90;;;;;;5005163;28;20159;-74
2023/09/23 09:50:14;;;;;;;8.50;3.97;;;14.90;99.90;;;;;;5017121;28;20053;-74
2023/09/23 09:52:43;;;;;;;6.55;3.70;;;14.90;99.90;;;;;;5016089;28;20498;-74
2023/09/23 09:55:15;;;;;;;7.30;4.45;;;14.90;99.90;;;;;;5014499;28;20135;-74
2023/09/23 09:57:41;;;;;;;7.88;3.95;;;15.00;99.90;;;;;;5011562;28;20055;-72
2023/09/23 10:00:15;;;;;;;5.93;4.03;;;15.10;99.90;;;;;;5031569;28;20487;-72
2023/09/23 10:02:43;;;;;;;7.45;4.25;;;15.10;99.90;;;;;;5004279;28;20030;-72
2023/09/23 10:05:18;;;;;;;5.63;3.85;;;15.30;99.90;;;;;;5014243;28;20022;-71
2023/09/23 10:07:56;;;;;;;5.93;3.60;;;15.30;99.90;;;;;;5015507;28;20064;-72
2023/09/23 10:10:32;;;;;;;6.18;3.72;;;15.30;99.90;;;;;;5035077;28;20095;-73
2023/09/23 10:13:24;;;;;;;7.07;4.20;;;15.40;99.90;;;;;;5016241;28;20125;-72
2023/09/23 10:15:50;;;;;;;6.68;3.63;;;15.40;99.90;;;;;;5021729;28;20569;-73
2023/09/23 10:18:19;;;;;;;5.95;2.90;;;15.40;99.90;;;;;;5022612;28;20483;-72
2023/09/23 10:20:50;;;;;;;7.10;2.92;;;15.40;99.90;;;;;;5020981;28;20175;-73
2023/09/23 10:23:18;;;;;;;8.68;3.05;;;15.40;99.90;;;;;;5015677;28;20041;-73
2023/09/23 10:25:44;;;;;;;6.57;3.03;;;15.40;99.90;;;;;;5013218;28;20037;-73
2023/09/23 10:28:28;;;;;;;6.50;2.85;;;15.40;99.90;;;;;;5019186;28;20386;-74
2023/09/23 10:31:03;;;;;;;4.93;2.65;;;15.50;99.90;;;;;;5023932;28;20049;-74
2023/09/23 10:33:30;;;;;;;5.43;2.83;;;15.50;99.90;;;;;;5024603;28;20503;-73
2023/09/23 10:35:58;;;;;;;4.57;2.78;;;15.60;99.90;;;;;;5022876;28;20665;-73
2023/09/23 10:38:25;;;;;;;7.00;2.40;;;15.60;99.90;;;;;;5033242;28;20403;-74
2023/09/23 10:40:55;;;;;;;3.53;2.42;;;15.70;99.90;;;;;;5004162;28;20048;-73
2023/09/23 10:43:21;;;;;;;6.30;2.33;;;15.80;99.90;;;;;;5020294;28;20037;-73
2023/09/23 10:45:58;;;;;;;2.78;2.05;;;15.80;99.90;;;;;;5003058;28;20083;-73
2023/09/23 10:48:25;;;;;;;6.28;2.83;;;15.90;99.90;;;;;;5019075;28;20073;-74
2023/09/23 10:50:52;;;;;;;5.65;2.88;;;15.90;99.90;;;;;;5017069;28;20052;-73
2023/09/23 10:53:30;;;;;;;7.63;2.97;;;16.00;99.90;;;;;;5000487;28;20037;-75
2023/09/23 10:55:57;;;;;;;5.47;2.65;;;16.00;99.90;;;;;;5016455;28;20038;-73
2023/09/23 10:58:23;;;;;;;5.28;2.75;;;16.00;99.90;;;;;;5014344;28;20045;-73
2023/09/23 11:00:51;;;;;;;5.40;2.58;;;16.00;99.90;;;;;;5035569;28;20048;-73
2023/09/23 11:03:17;;;;;;;2.67;2.10;;;16.00;99.90;;;;;;5020171;28;20396;-73
2023/09/23 11:05:44;;;;;;;3.13;2.10;;;16.00;99.90;;;;;;5020371;28;20045;-73
2023/09/23 11:08:11;;;;;;;4.40;2.20;;;15.90;99.90;;;;;;5024392;28;20112;-73
2023/09/23 11:10:42;;;;;;;2.78;1.58;;;15.90;99.90;;;;;;5023243;28;20048;-73
2023/09/23 11:13:08;;;;;;;2.90;1.75;;;15.90;99.90;;;;;;5022876;28;20037;-73
2023/09/23 11:15:39;;;;;;;8.50;1.52;;;15.90;99.90;;;;;;5024088;28;20180;-73
2023/09/23 11:18:25;;;;;;;2.33;1.40;;;15.80;99.90;;;;;;5006338;28;20125;-73
2023/09/23 11:20:52;;;;;;;2.72;1.38;;;15.80;99.90;;;;;;5005131;28;20094;-73
2023/09/23 11:23:18;;;;;;;2.97;1.10;;;15.90;99.90;;;;;;5007949;28;20042;-73
2023/09/23 11:25:53;;;;;;;2.33;1.50;;;15.90;99.90;;;;;;5024009;28;20079;-73
2023/09/23 11:28:24;;;;;;;2.95;1.33;;;15.90;99.90;;;;;;5022634;28;20037;-73
2023/09/23 11:30:51;;;;;;;2.35;1.52;;;16.00;99.90;;;;;;5021089;28;20399;-73
2023/09/23 11:33:17;;;;;;;5.18;1.80;;;16.00;99.90;;;;;;5025884;28;20379;-73
2023/09/23 11:35:44;;;;;;;3.05;1.48;;;16.10;99.90;;;;;;5006511;28;20052;-74
2023/09/23 11:38:11;;;;;;;3.28;1.40;;;16.10;99.90;;;;;;5024546;28;20139;-73
2023/09/23 11:40:36;;;;;;;3.20;1.30;;;16.20;99.90;;;;;;5024924;28;20088;-73
2023/09/23 11:43:03;;;;;;;4.00;1.38;;;16.30;99.90;;;;;;5020894;28;20069;-72
2023/09/23 11:45:29;;;;;;;2.30;1.50;;;16.30;99.90;;;;;;5022724;28;20607;-72
2023/09/23 11:47:59;;;;;;;2.75;1.65;;;16.30;99.90;;;;;;5018059;28;20033;-73
2023/09/23 11:50:25;;;;;;;5.50;1.40;;;16.20;99.90;;;;;;5021871;28;20041;-73
2023/09/23 11:52:52;;;;;;;2.20;1.40;;;16.20;99.90;;;;;;5007199;28;20037;-73
2023/09/23 11:55:18;;;;;;;2.45;1.20;;;16.20;99.90;;;;;;5007046;28;20463;-73
2023/09/23 11:57:44;;;;;;;2.03;1.30;;;16.20;99.90;;;;;;5004767;28;20041;-73
2023/09/23 12:00:10;;;;;;;3.75;1.38;;;16.20;99.90;;;;;;5005848;28;20048;-73
2023/09/23 12:02:40;;;;;;;2.88;1.48;;;16.20;99.90;;;;;;5004669;28;20048;-73
2023/09/23 12:05:07;;;;;;;4.10;1.00;;;16.30;99.90;;;;;;5022130;28;20037;-73
2023/09/23 12:07:34;;;;;;;2.85;1.52;;;16.30;99.90;;;;;;5019947;28;20038;-73
2023/09/23 12:10:00;;;;;;;4.40;1.25;;;16.40;99.90;;;;;;5022524;28;20406;-73
2023/09/23 12:12:27;;;;;;;1.88;0.90;;;16.40;99.90;;;;;;5022911;28;20047;-73
2023/09/23 12:14:53;;;;;;;2.42;1.08;;;16.50;99.90;;;;;;5006552;28;20030;-73
2023/09/23 12:17:18;;;;;;;1.40;1.00;;;16.50;99.90;;;;;;5006113;28;20029;-73
2023/09/23 12:19:44;;;;;;;2.78;1.10;;;16.50;99.90;;;;;;5037139;28;20498;-73
2023/09/23 12:22:15;;;;;;;2.35;0.82;;;16.50;99.90;;;;;;5004397;28;20079;-73
2023/09/23 12:24:44;;;;;;;2.75;1.13;;;16.50;99.90;;;;;;5039176;28;20045;-73
2023/09/23 12:27:11;;;;;;;1.60;1.10;;;16.60;99.90;;;;;;5021159;28;20037;-73
2023/09/23 12:29:37;;;;;;;2.72;1.10;;;16.50;99.90;;;;;;5022044;28;20558;-73
2023/09/23 12:32:03;;;;;;;1.85;1.00;;;16.50;99.90;;;;;;5023665;28;20167;-73
2023/09/23 12:34:29;;;;;;;1.17;0.70;;;16.40;99.90;;;;;;5003460;28;20091;-73
2023/09/23 12:36:55;;;;;;;1.90;0.80;;;16.40;99.90;;;;;;5020580;28;20038;-73
2023/09/23 12:39:23;;;;;;;2.78;0.80;;;16.30;99.90;;;;;;5002427;28;20034;-73
2023/09/23 12:41:50;;;;;;;2.40;0.98;;;16.30;99.90;;;;;;5022783;28;20077;-73